San Marcos, Argentina
Current Conditions -  °F | °C
As of 12:00 AM on Saturday 01 Nov 2014 (Local Time) from SAAR Reporting Station
Broken Clouds Broken Clouds  
Wind Chill: 63°   Ceiling: 10000
Heat Index: 63°   Visibility: 6mi
Dew Point: 61°   Wind: 12mph
Humidity: 94%   Direction: 140°SE
Pressure: 30"   Gusts: NA
Location:  32.63°S, 62.47°W
Report Text: SAAR 010300Z 14010KT 9999 FEW010 BKN10017/16 Q1016
Loading
Personal Weather Stations






























Interactive Weather Map
Tropical Storm Tracking
New forecast layout! Learn more

10-Day Weather Forecast

Advertisements
Track Severe Weather on mobile